createdAt,value
2023-02-13T00:00:04.652Z,15.89
2023-02-13T00:01:04.617Z,15.89
2023-02-13T00:02:04.689Z,15.89
2023-02-13T00:03:04.667Z,15.88
2023-02-13T00:04:04.626Z,15.89
2023-02-13T00:05:04.621Z,15.89
2023-02-13T00:06:04.603Z,15.88
2023-02-13T00:07:04.640Z,15.87
2023-02-13T00:08:04.607Z,15.88
2023-02-13T00:09:06.412Z,15.86
2023-02-13T00:10:04.601Z,15.87
2023-02-13T00:11:04.616Z,15.85
2023-02-13T00:20:04.491Z,15.74
2023-02-13T00:21:04.530Z,15.72
2023-02-13T00:22:04.508Z,15.71
2023-02-13T00:23:04.504Z,15.70
2023-02-13T00:24:04.478Z,15.68
2023-02-13T00:25:04.452Z,15.66
2023-02-13T00:26:04.479Z,15.66
2023-02-13T00:27:04.459Z,15.64
2023-02-13T00:28:04.499Z,15.62
2023-02-13T00:29:04.421Z,15.60
2023-02-13T00:30:04.445Z,15.59
2023-02-13T00:31:04.544Z,15.57
2023-02-13T00:32:04.508Z,15.57
2023-02-13T00:33:04.455Z,15.55
2023-02-13T00:34:04.431Z,15.53
2023-02-13T00:35:04.383Z,15.52
2023-02-13T00:36:04.430Z,15.52
2023-02-13T00:37:04.389Z,15.50
2023-02-13T00:38:04.388Z,15.50
2023-02-13T00:39:04.368Z,15.49
2023-02-13T00:40:04.377Z,15.48
2023-02-13T00:41:04.356Z,15.48
2023-02-13T00:42:04.366Z,15.48
2023-02-13T00:43:04.361Z,15.47
2023-02-13T00:44:04.372Z,15.46
2023-02-13T00:45:04.381Z,15.47
2023-02-13T00:46:04.382Z,15.46
2023-02-13T00:47:04.338Z,15.46
2023-02-13T00:48:04.343Z,15.44
2023-02-13T00:49:04.325Z,15.43
2023-02-13T00:50:04.321Z,15.42
2023-02-13T00:51:04.274Z,15.43
2023-02-13T00:52:04.277Z,15.42
2023-02-13T00:53:04.275Z,15.44
2023-02-13T00:54:04.270Z,15.43
2023-02-13T00:55:04.266Z,15.41
2023-02-13T00:56:04.239Z,15.41
2023-02-13T00:57:04.277Z,15.40
2023-02-13T00:58:04.318Z,15.41
2023-02-13T00:59:04.272Z,15.41
2023-02-13T01:00:04.269Z,15.42
2023-02-13T01:01:04.239Z,15.41
2023-02-13T01:02:04.215Z,15.41
2023-02-13T01:03:04.199Z,15.41
2023-02-13T01:04:04.282Z,15.42
2023-02-13T01:05:04.176Z,15.41
2023-02-13T01:06:04.473Z,15.39
2023-02-13T01:07:04.162Z,15.40
2023-02-13T01:08:04.200Z,15.40
2023-02-13T01:09:04.177Z,15.39
2023-02-13T01:10:04.173Z,15.40
2023-02-13T01:11:04.198Z,15.40
2023-02-13T01:12:04.138Z,15.40
2023-02-13T01:13:04.162Z,15.39
2023-02-13T01:14:04.128Z,15.41
2023-02-13T01:15:04.145Z,15.40
2023-02-13T01:16:04.144Z,15.38
2023-02-13T01:17:04.131Z,15.38
2023-02-13T01:18:04.146Z,15.38
2023-02-13T01:19:04.095Z,15.38
2023-02-13T01:20:04.077Z,15.37
2023-02-13T01:21:04.109Z,15.39
2023-02-13T01:22:04.109Z,15.39
2023-02-13T02:07:06.110Z,15.30
2023-02-13T02:08:06.160Z,15.29
2023-02-13T02:09:06.228Z,15.30
2023-02-13T02:10:06.290Z,15.30
2023-02-13T02:11:06.336Z,15.29
2023-02-13T02:12:06.403Z,15.30
2023-02-13T02:13:06.443Z,15.29
2023-02-13T02:14:06.521Z,15.29
2023-02-13T02:15:06.589Z,15.28
2023-02-13T02:16:06.695Z,15.30
2023-02-13T02:17:06.666Z,15.28
2023-02-13T02:18:06.733Z,15.28
2023-02-13T02:19:06.773Z,15.28
2023-02-13T02:20:06.872Z,15.26
2023-02-13T02:21:06.929Z,15.26
2023-02-13T02:22:06.979Z,15.27
2023-02-13T02:23:07.029Z,15.26
2023-02-13T02:24:07.068Z,15.26
2023-02-13T02:25:07.119Z,15.26
2023-02-13T02:26:07.193Z,15.27
2023-02-13T02:27:07.217Z,15.25
2023-02-13T02:28:07.351Z,15.25
2023-02-13T02:29:07.331Z,15.24
2023-02-13T02:30:07.392Z,15.24
2023-02-13T02:31:07.642Z,15.26
2023-02-13T02:32:07.503Z,15.27
2023-02-13T02:33:07.583Z,15.25
2023-02-13T02:34:07.634Z,15.24
2023-02-13T02:42:07.994Z,15.22
2023-02-13T02:43:08.053Z,15.22
2023-02-13T02:44:08.110Z,15.20
2023-02-13T02:45:08.127Z,15.19
2023-02-13T02:46:08.212Z,15.19
2023-02-13T02:47:08.316Z,15.20
2023-02-13T02:48:08.291Z,15.20
2023-02-13T02:49:08.307Z,15.20
2023-02-13T02:50:08.365Z,15.21
2023-02-13T02:51:08.408Z,15.21
2023-02-13T02:52:08.479Z,15.19
2023-02-13T02:53:08.524Z,15.19
2023-02-13T02:54:08.543Z,15.18
2023-02-13T02:55:08.644Z,15.18
2023-02-13T02:56:08.643Z,15.19
2023-02-13T02:57:08.660Z,15.19
2023-02-13T02:58:08.680Z,15.17
2023-02-13T02:59:08.708Z,15.19
2023-02-13T03:00:08.749Z,15.20
2023-02-13T03:01:08.910Z,15.19
2023-02-13T03:02:08.822Z,15.17
2023-02-13T03:03:08.896Z,15.16
2023-02-13T03:04:08.921Z,15.19
2023-02-13T03:05:08.966Z,15.18
2023-02-13T03:06:09.000Z,15.17
2023-02-13T03:07:09.039Z,15.17
2023-02-13T03:08:09.083Z,15.16
2023-02-13T03:09:09.109Z,15.16
2023-02-13T03:10:09.142Z,15.17
2023-02-13T03:11:09.201Z,15.16
2023-02-13T03:12:09.234Z,15.15
2023-02-13T03:13:09.263Z,15.17
2023-02-13T03:14:09.330Z,15.15
2023-02-13T03:15:09.333Z,15.15
2023-02-13T03:16:09.442Z,15.14
2023-02-13T03:17:09.436Z,15.13
2023-02-13T03:18:09.482Z,15.13
2023-02-13T03:19:09.536Z,15.15
2023-02-13T03:20:09.566Z,15.14
2023-02-13T03:21:09.603Z,15.13
2023-02-13T03:22:09.631Z,15.12
2023-02-13T03:23:09.683Z,15.12
2023-02-13T03:24:09.760Z,15.14
2023-02-13T03:25:09.760Z,15.12
2023-02-13T03:26:09.808Z,15.12
2023-02-13T03:27:09.876Z,15.12
2023-02-13T03:28:09.942Z,15.12
2023-02-13T03:29:09.933Z,15.11
2023-02-13T03:30:09.945Z,15.11
2023-02-13T03:31:10.100Z,15.10
2023-02-13T03:32:10.050Z,15.12
2023-02-13T03:33:10.106Z,15.09
2023-02-13T03:34:10.103Z,15.10
2023-02-13T03:35:10.144Z,15.10
2023-02-13T03:36:10.187Z,15.10
2023-02-13T03:37:10.227Z,15.11
2023-02-13T03:38:10.254Z,15.09
2023-02-13T03:39:10.338Z,15.09
2023-02-13T03:40:10.371Z,15.09
2023-02-13T03:41:10.389Z,15.11
2023-02-13T03:42:10.452Z,15.09
2023-02-13T03:43:10.476Z,15.09
2023-02-13T03:44:10.516Z,15.09
2023-02-13T03:45:10.552Z,15.08
2023-02-13T03:46:10.636Z,15.07
2023-02-13T03:47:10.607Z,15.08
2023-02-13T03:48:10.668Z,15.08
2023-02-13T03:49:10.700Z,15.08
2023-02-13T03:50:10.727Z,15.07
2023-02-13T03:51:10.759Z,15.08
2023-02-13T03:52:10.805Z,15.08
2023-02-13T03:53:10.813Z,15.07
2023-02-13T03:54:10.849Z,15.07
2023-02-13T03:55:10.888Z,15.08
2023-02-13T03:57:10.957Z,15.07
2023-02-13T03:58:10.984Z,15.08
2023-02-13T03:59:11.033Z,15.07
2023-02-13T04:00:11.063Z,15.08
2023-02-13T04:01:11.104Z,15.06
2023-02-13T04:02:11.169Z,15.07
2023-02-13T04:03:11.165Z,15.06
2023-02-13T04:04:11.194Z,15.05
2023-02-13T04:05:12.086Z,15.05
2023-02-13T04:06:11.248Z,15.05
2023-02-13T04:07:11.291Z,15.07
2023-02-13T04:08:11.309Z,15.06
2023-02-13T04:09:11.370Z,15.02
2023-02-13T04:10:11.417Z,15.05
2023-02-13T04:11:11.425Z,15.04
2023-02-13T04:12:11.452Z,15.04
2023-02-13T04:13:11.487Z,15.06
2023-02-13T04:14:11.507Z,15.05
2023-02-13T04:15:11.557Z,15.04
2023-02-13T04:16:11.615Z,15.05
2023-02-13T04:17:11.628Z,15.04
2023-02-13T04:18:11.630Z,15.05
2023-02-13T04:19:11.676Z,15.04
2023-02-13T05:59:16.067Z,14.74
2023-02-13T06:00:16.179Z,14.74
2023-02-13T06:01:23.201Z,14.73
2023-02-13T06:02:16.221Z,14.73
2023-02-13T06:03:16.170Z,14.73
2023-02-13T06:04:16.265Z,14.73
2023-02-13T06:05:16.137Z,14.74
2023-02-13T06:06:16.120Z,14.74
2023-02-13T06:07:16.160Z,14.72
2023-02-13T06:08:16.146Z,14.73
2023-02-13T06:09:16.112Z,14.72
2023-02-13T06:10:16.089Z,14.73
2023-02-13T06:11:16.130Z,14.73
2023-02-13T06:12:16.125Z,14.73
2023-02-13T06:13:16.076Z,14.72
2023-02-13T06:14:16.108Z,14.72
2023-02-13T06:15:16.095Z,14.73
2023-02-13T06:16:16.088Z,14.73
2023-02-13T06:17:16.118Z,14.72
2023-02-13T06:19:16.092Z,14.72
2023-02-13T06:22:16.086Z,14.71
2023-02-13T06:27:16.108Z,14.69
2023-02-13T06:28:16.163Z,14.69
2023-02-13T06:29:16.219Z,14.70
2023-02-13T06:30:16.274Z,14.69
2023-02-13T06:31:16.447Z,14.69
2023-02-13T06:32:16.427Z,14.70
2023-02-13T06:33:16.474Z,14.68
2023-02-13T06:34:16.518Z,14.70
2023-02-13T06:35:16.573Z,14.69
2023-02-13T06:36:16.658Z,14.69
2023-02-13T06:37:16.728Z,14.68
2023-02-13T06:38:16.756Z,14.69
2023-02-13T06:39:16.829Z,14.68
2023-02-13T06:40:16.874Z,14.69
2023-02-13T06:41:16.954Z,14.69
2023-02-13T06:42:17.058Z,14.67
2023-02-13T06:43:17.070Z,14.67
2023-02-13T06:44:17.155Z,14.69
2023-02-13T06:45:17.179Z,14.70
2023-02-13T06:46:24.280Z,14.68
2023-02-13T06:47:17.275Z,14.69
2023-02-13T06:48:17.212Z,14.70
2023-02-13T06:49:17.205Z,14.68
2023-02-13T06:50:17.212Z,14.70
2023-02-13T06:51:17.216Z,14.66
2023-02-13T06:52:17.184Z,14.68
2023-02-13T06:53:17.202Z,14.68
2023-02-13T06:54:17.168Z,14.67
2023-02-13T06:55:17.220Z,14.67
2023-02-13T06:56:17.233Z,14.67
2023-02-13T06:57:17.143Z,14.67
2023-02-13T06:58:17.155Z,14.66
2023-02-13T06:59:17.186Z,14.68
2023-02-13T07:00:17.276Z,14.66
2023-02-13T07:01:17.205Z,14.67
2023-02-13T07:02:17.127Z,14.67
2023-02-13T07:03:17.165Z,14.65
2023-02-13T07:04:17.112Z,14.66
2023-02-13T07:05:17.214Z,14.66
2023-02-13T07:06:17.131Z,14.65
2023-02-13T07:07:17.082Z,14.64
2023-02-13T07:08:17.097Z,14.66
2023-02-13T07:09:17.065Z,14.64
2023-02-13T07:10:17.114Z,14.65
2023-02-13T07:11:17.117Z,14.65
2023-02-13T07:12:17.126Z,14.66
2023-02-13T07:13:17.062Z,14.65
2023-02-13T07:14:17.059Z,14.65
2023-02-13T07:15:17.151Z,14.64
2023-02-13T07:16:17.218Z,14.64
2023-02-13T07:17:17.268Z,14.64
2023-02-13T07:18:17.327Z,14.64
2023-02-13T07:19:17.377Z,14.67
2023-02-13T07:20:17.412Z,14.66
2023-02-13T07:21:17.498Z,14.66
2023-02-13T07:22:17.543Z,14.64
2023-02-13T07:23:17.610Z,14.67
2023-02-13T07:24:17.638Z,14.64
2023-02-13T07:25:17.733Z,14.65
2023-02-13T07:26:17.773Z,14.64
2023-02-13T07:27:17.839Z,14.63
2023-02-13T07:28:17.937Z,14.63
2023-02-13T07:29:17.968Z,14.62
2023-02-13T07:30:18.304Z,14.62
2023-02-13T07:31:18.195Z,14.61
2023-02-13T07:32:18.187Z,14.61
2023-02-13T07:33:18.236Z,14.62
2023-02-13T07:34:18.287Z,14.62
2023-02-13T07:35:18.337Z,14.61
2023-02-13T07:36:18.410Z,14.60
2023-02-13T07:37:18.447Z,14.35
2023-02-13T07:38:18.455Z,13.64
2023-02-13T07:39:18.528Z,12.44
2023-02-13T07:40:18.548Z,11.29
2023-02-13T07:41:18.595Z,10.42
2023-02-13T07:42:18.601Z,9.67
2023-02-13T07:43:18.644Z,9.12
2023-02-13T07:44:18.688Z,8.75
2023-02-13T07:45:18.712Z,8.68
2023-02-13T07:46:18.756Z,8.65
2023-02-13T07:47:20.153Z,8.70
2023-02-13T07:48:18.704Z,8.65
2023-02-13T07:49:18.728Z,8.60
2023-02-13T07:50:18.853Z,8.88
2023-02-13T07:51:18.824Z,9.48
2023-02-13T07:52:18.837Z,10.05
2023-02-13T07:53:18.866Z,10.53
2023-02-13T07:54:18.886Z,10.89
2023-02-13T07:55:18.944Z,11.22
2023-02-13T07:56:18.955Z,11.48
2023-02-13T07:57:19.024Z,11.71
2023-02-13T07:58:19.017Z,11.91
2023-02-13T07:59:19.034Z,12.05
2023-02-13T08:00:19.095Z,12.18
2023-02-13T08:01:19.097Z,12.31
2023-02-13T08:02:19.157Z,12.42
2023-02-13T08:03:19.137Z,12.51
2023-02-13T08:04:19.220Z,12.60
2023-02-13T08:05:19.333Z,12.68
2023-02-13T08:06:19.346Z,12.78
2023-02-13T08:07:19.354Z,12.82
2023-02-13T10:32:26.372Z,14.82
2023-02-13T10:36:26.136Z,14.84
2023-02-13T10:37:26.237Z,14.85
2023-02-13T10:38:26.207Z,14.86
2023-02-13T10:39:26.254Z,14.87
2023-02-13T10:40:26.322Z,14.88
2023-02-13T10:41:26.412Z,14.90
2023-02-13T10:42:26.447Z,14.89
2023-02-13T10:43:26.489Z,14.90
2023-02-13T10:44:26.558Z,14.92
2023-02-13T10:45:26.608Z,14.94
2023-02-13T10:46:26.689Z,14.93
2023-02-13T10:47:26.674Z,14.95
2023-02-13T10:48:27.134Z,14.94
2023-02-13T10:49:26.810Z,14.98
2023-02-13T10:50:26.846Z,14.98
2023-02-13T10:51:26.882Z,14.98
2023-02-13T10:52:26.967Z,15.01
2023-02-13T10:53:26.966Z,14.99
2023-02-13T10:54:27.028Z,15.03
2023-02-13T10:55:27.073Z,15.03
2023-02-13T10:56:27.158Z,15.04
2023-02-13T10:57:27.174Z,15.06
2023-02-13T10:58:27.203Z,15.07
2023-02-13T10:59:27.269Z,15.07
2023-02-13T11:00:27.288Z,15.10
2023-02-13T11:01:27.397Z,15.10
2023-02-13T11:02:27.400Z,15.11
2023-02-13T11:03:27.434Z,15.12
2023-02-13T11:04:27.496Z,15.12
2023-02-13T11:05:27.484Z,15.13
2023-02-13T11:06:27.463Z,15.12
2023-02-13T11:07:27.461Z,15.13
2023-02-13T11:08:27.496Z,15.14
2023-02-13T11:09:27.516Z,15.13
2023-02-13T11:10:27.518Z,15.14
2023-02-13T11:11:27.911Z,15.13
2023-02-13T11:12:27.529Z,15.14
2023-02-13T11:13:27.570Z,15.15
2023-02-13T11:14:27.576Z,15.16
2023-02-13T11:15:27.584Z,15.16
2023-02-13T11:16:27.701Z,15.17
2023-02-13T11:17:27.669Z,15.14
2023-02-13T11:18:27.634Z,15.15
2023-02-13T11:19:27.664Z,15.15
2023-02-13T11:20:27.652Z,15.14
2023-02-13T11:21:27.671Z,15.15
2023-02-13T11:22:27.673Z,15.15
2023-02-13T11:23:27.702Z,15.15
2023-02-13T11:24:27.709Z,15.14
2023-02-13T11:25:27.789Z,15.14
2023-02-13T11:26:27.790Z,15.15
2023-02-13T11:27:27.875Z,15.13
2023-02-13T11:28:27.968Z,15.15
2023-02-13T11:29:27.982Z,15.15
2023-02-13T11:30:28.047Z,15.12
2023-02-13T11:31:28.213Z,15.15
2023-02-13T11:32:28.216Z,15.15
2023-02-13T11:33:28.159Z,15.16
2023-02-13T11:34:28.256Z,15.16
2023-02-13T11:35:28.280Z,15.15
2023-02-13T11:36:28.303Z,15.14
2023-02-13T11:37:28.405Z,15.13
2023-02-13T14:05:36.075Z,15.28
2023-02-13T14:06:36.064Z,15.28
2023-02-13T14:07:36.062Z,15.30
2023-02-13T14:08:36.058Z,15.30
2023-02-13T14:09:36.171Z,15.31
2023-02-13T14:10:36.259Z,15.29
2023-02-13T14:11:36.329Z,15.30
2023-02-13T14:12:36.368Z,15.31
2023-02-13T14:13:36.407Z,15.31
2023-02-13T14:14:36.460Z,15.30
2023-02-13T17:36:43.232Z,16.45
2023-02-13T17:38:43.249Z,16.46
2023-02-13T17:39:43.213Z,16.48
2023-02-13T17:40:43.265Z,16.46
2023-02-13T17:41:43.216Z,16.48
2023-02-13T17:42:43.300Z,16.47
2023-02-13T17:43:43.370Z,16.48
2023-02-13T17:44:43.451Z,16.48
2023-02-13T17:45:43.446Z,16.49
2023-02-13T17:46:43.459Z,16.50
2023-02-13T17:47:43.441Z,16.51
2023-02-13T17:48:43.451Z,16.52
2023-02-13T17:49:43.416Z,16.51
2023-02-13T17:50:43.442Z,16.52
2023-02-13T17:51:45.865Z,16.53
2023-02-13T17:52:43.582Z,16.52
2023-02-13T17:53:43.582Z,16.53
2023-02-13T17:54:43.592Z,16.55
2023-02-13T17:55:43.577Z,16.55
2023-02-13T21:08:46.089Z,16.76
2023-02-13T21:09:46.099Z,16.76
2023-02-13T21:10:46.112Z,16.75
2023-02-13T21:11:46.122Z,16.75
2023-02-13T21:12:46.146Z,16.75
2023-02-13T21:13:46.206Z,16.74
2023-02-13T21:14:46.242Z,16.75
2023-02-13T21:15:46.233Z,16.72
2023-02-13T21:16:46.303Z,16.75
2023-02-13T21:17:46.292Z,16.72
2023-02-13T21:18:46.335Z,16.74
2023-02-13T21:19:46.294Z,16.72
2023-02-13T21:20:46.351Z,16.71
2023-02-13T21:21:46.347Z,16.71
2023-02-13T21:22:46.407Z,16.70
2023-02-13T21:23:46.408Z,16.71
2023-02-13T21:24:46.400Z,16.70
2023-02-13T21:25:46.440Z,16.70
2023-02-13T21:26:46.448Z,16.70
2023-02-13T21:27:46.493Z,16.68
2023-02-13T21:28:46.545Z,16.69
2023-02-13T21:29:46.690Z,16.69
2023-02-13T21:30:46.553Z,16.68
2023-02-13T21:31:46.658Z,16.68
2023-02-13T21:32:46.587Z,16.68
2023-02-13T21:33:46.664Z,16.67
2023-02-13T21:34:46.654Z,16.67
2023-02-13T21:35:46.706Z,16.66
2023-02-13T21:36:46.765Z,16.66
2023-02-13T21:37:46.733Z,16.68
2023-02-13T21:38:46.777Z,16.66
2023-02-13T21:39:46.781Z,16.68
2023-02-13T21:40:46.801Z,16.66
2023-02-13T21:41:46.858Z,16.66
2023-02-13T21:42:46.846Z,16.66
2023-02-13T21:43:46.915Z,16.64
2023-02-13T21:44:46.928Z,16.66
2023-02-13T21:45:46.953Z,16.64
2023-02-13T21:46:47.073Z,16.63
2023-02-13T21:47:46.973Z,16.65
2023-02-13T21:48:47.047Z,16.66
2023-02-13T21:49:47.033Z,16.64
2023-02-13T21:50:47.062Z,16.65
2023-02-13T21:51:47.132Z,16.64
2023-02-13T21:52:47.131Z,16.64
2023-02-13T21:53:47.214Z,16.64
2023-02-13T21:54:47.192Z,16.64
2023-02-13T21:55:47.203Z,16.66
2023-02-13T21:57:47.265Z,16.65
2023-02-13T21:58:47.297Z,16.63
2023-02-13T21:59:47.304Z,16.64
2023-02-13T22:00:47.338Z,16.65
2023-02-13T22:01:47.432Z,16.64
2023-02-13T22:02:47.444Z,16.65
2023-02-13T22:03:47.405Z,16.65
2023-02-13T22:04:47.434Z,16.66
2023-02-13T22:05:47.468Z,16.64
2023-02-13T22:06:47.486Z,16.65
2023-02-13T22:07:47.522Z,16.66
2023-02-13T22:08:47.971Z,16.64
2023-02-13T22:09:47.617Z,16.64
2023-02-13T22:10:47.638Z,16.65
2023-02-13T22:11:47.655Z,16.63
2023-02-13T22:12:47.703Z,16.64
2023-02-13T22:13:47.690Z,16.62
2023-02-13T22:14:47.743Z,16.63
2023-02-13T22:15:47.746Z,16.62
2023-02-13T22:16:47.933Z,16.64
2023-02-13T22:17:47.792Z,16.62
2023-02-13T22:18:47.858Z,16.60
2023-02-13T22:19:47.879Z,16.61
2023-02-13T22:20:47.884Z,16.61
2023-02-13T22:21:47.965Z,16.61
2023-02-13T22:22:47.999Z,16.62
2023-02-13T22:23:47.986Z,16.61
2023-02-13T22:24:48.016Z,16.61
2023-02-13T22:25:49.028Z,16.61
2023-02-13T22:26:48.109Z,16.60
2023-02-13T22:27:48.149Z,16.61
2023-02-13T22:28:48.214Z,16.61
2023-02-13T22:29:48.239Z,16.61
2023-02-13T22:30:48.329Z,16.61
2023-02-13T22:31:48.423Z,16.61
2023-02-13T22:32:48.303Z,16.61
2023-02-13T22:33:58.508Z,16.60
2023-02-13T22:34:49.324Z,16.60
2023-02-13T22:35:48.301Z,16.61
2023-02-13T22:36:48.316Z,16.59
2023-02-13T22:37:48.277Z,16.60
2023-02-13T22:38:48.273Z,16.59
2023-02-13T22:39:48.259Z,16.60
2023-02-13T22:40:48.273Z,16.59
2023-02-13T22:41:48.230Z,16.60
2023-02-13T22:42:48.268Z,16.59
2023-02-13T22:43:48.253Z,16.61
2023-02-13T22:44:48.220Z,16.59
2023-02-13T22:45:48.325Z,16.58
2023-02-13T22:46:48.230Z,16.59
2023-02-13T22:47:48.248Z,16.58
2023-02-13T22:48:48.241Z,16.60
2023-02-13T22:49:48.277Z,16.59
2023-02-13T22:50:48.298Z,16.58
2023-02-13T22:51:48.347Z,16.59
